sensor_id;sensor_type;location;lat;lon;timestamp;temperature;humidity
66190;DHT22;52992;52.084;5.412;2022-07-29T00:00:47;22.30;43.90
66190;DHT22;52992;52.084;5.412;2022-07-29T00:03:14;22.30;43.60
66190;DHT22;52992;52.084;5.412;2022-07-29T00:05:42;22.20;43.40
66190;DHT22;52992;52.084;5.412;2022-07-29T00:08:08;22.20;43.80
66190;DHT22;52992;52.084;5.412;2022-07-29T00:10:38;22.20;43.70
66190;DHT22;52992;52.084;5.412;2022-07-29T00:13:05;22.20;44.00
66190;DHT22;52992;52.084;5.412;2022-07-29T00:15:32;22.10;43.80
66190;DHT22;52992;52.084;5.412;2022-07-29T00:17:59;22.10;43.50
66190;DHT22;52992;52.084;5.412;2022-07-29T00:20:25;22.00;43.60
66190;DHT22;52992;52.084;5.412;2022-07-29T00:22:52;22.00;44.10
66190;DHT22;52992;52.084;5.412;2022-07-29T00:25:19;22.00;44.10
66190;DHT22;52992;52.084;5.412;2022-07-29T00:27:46;21.90;44.10
66190;DHT22;52992;52.084;5.412;2022-07-29T00:30:13;21.90;44.30
66190;DHT22;52992;52.084;5.412;2022-07-29T00:32:40;21.90;44.50
66190;DHT22;52992;52.084;5.412;2022-07-29T00:35:08;21.80;44.10
66190;DHT22;52992;52.084;5.412;2022-07-29T00:37:53;21.80;44.40
66190;DHT22;52992;52.084;5.412;2022-07-29T00:40:20;21.80;45.00
66190;DHT22;52992;52.084;5.412;2022-07-29T00:42:50;21.80;45.00
66190;DHT22;52992;52.084;5.412;2022-07-29T00:45:18;21.80;45.00
66190;DHT22;52992;52.084;5.412;2022-07-29T00:47:46;21.80;44.90
66190;DHT22;52992;52.084;5.412;2022-07-29T00:50:13;21.80;45.10
66190;DHT22;52992;52.084;5.412;2022-07-29T00:52:42;21.70;45.00
66190;DHT22;52992;52.084;5.412;2022-07-29T00:55:11;21.70;45.00
66190;DHT22;52992;52.084;5.412;2022-07-29T00:57:39;21.70;45.40
66190;DHT22;52992;52.084;5.412;2022-07-29T01:00:09;21.70;45.50
66190;DHT22;52992;52.084;5.412;2022-07-29T01:02:36;21.60;45.50
66190;DHT22;52992;52.084;5.412;2022-07-29T01:05:04;21.60;45.40
66190;DHT22;52992;52.084;5.412;2022-07-29T01:07:34;21.60;45.60
66190;DHT22;52992;52.084;5.412;2022-07-29T01:10:03;21.60;45.40
66190;DHT22;52992;52.084;5.412;2022-07-29T01:12:31;21.60;45.40
66190;DHT22;52992;52.084;5.412;2022-07-29T01:15:01;21.50;45.50
66190;DHT22;52992;52.084;5.412;2022-07-29T01:20:27;21.50;46.00
66190;DHT22;52992;52.084;5.412;2022-07-29T01:26:01;21.40;46.70
66190;DHT22;52992;52.084;5.412;2022-07-29T01:34:21;21.40;46.00
66190;DHT22;52992;52.084;5.412;2022-07-29T01:36:55;21.40;46.40
66190;DHT22;52992;52.084;5.412;2022-07-29T01:39:30;21.40;47.30
66190;DHT22;52992;52.084;5.412;2022-07-29T01:42:38;21.40;46.20
66190;DHT22;52992;52.084;5.412;2022-07-29T01:45:33;21.30;46.30
66190;DHT22;52992;52.084;5.412;2022-07-29T01:48:10;21.30;46.40
66190;DHT22;52992;52.084;5.412;2022-07-29T01:50:50;21.30;46.70
66190;DHT22;52992;52.084;5.412;2022-07-29T01:53:29;21.30;46.40
66190;DHT22;52992;52.084;5.412;2022-07-29T01:56:04;21.30;46.60
66190;DHT22;52992;52.084;5.412;2022-07-29T01:58:35;21.30;46.50
66190;DHT22;52992;52.084;5.412;2022-07-29T02:01:03;21.20;46.60
66190;DHT22;52992;52.084;5.412;2022-07-29T02:03:33;21.30;46.80
66190;DHT22;52992;52.084;5.412;2022-07-29T02:06:02;21.30;46.80
66190;DHT22;52992;52.084;5.412;2022-07-29T02:08:32;21.30;47.00
66190;DHT22;52992;52.084;5.412;2022-07-29T02:11:01;21.30;47.00
66190;DHT22;52992;52.084;5.412;2022-07-29T02:13:30;21.30;46.70
66190;DHT22;52992;52.084;5.412;2022-07-29T02:15:58;21.30;46.60
66190;DHT22;52992;52.084;5.412;2022-07-29T02:18:27;21.30;46.70
66190;DHT22;52992;52.084;5.412;2022-07-29T02:20:56;21.30;46.70
66190;DHT22;52992;52.084;5.412;2022-07-29T02:23:26;21.30;46.50
66190;DHT22;52992;52.084;5.412;2022-07-29T02:25:55;21.30;46.50
66190;DHT22;52992;52.084;5.412;2022-07-29T02:28:25;21.30;46.70
66190;DHT22;52992;52.084;5.412;2022-07-29T02:30:58;21.30;47.00
66190;DHT22;52992;52.084;5.412;2022-07-29T02:33:27;21.30;46.80
66190;DHT22;52992;52.084;5.412;2022-07-29T02:35:54;21.30;46.90
66190;DHT22;52992;52.084;5.412;2022-07-29T02:38:23;21.30;47.00
66190;DHT22;52992;52.084;5.412;2022-07-29T02:41:23;21.30;46.80
66190;DHT22;52992;52.084;5.412;2022-07-29T02:44:05;21.30;46.80
66190;DHT22;52992;52.084;5.412;2022-07-29T02:46:35;21.30;46.60
66190;DHT22;52992;52.084;5.412;2022-07-29T02:49:18;21.30;46.60
66190;DHT22;52992;52.084;5.412;2022-07-29T02:51:50;21.30;46.80
66190;DHT22;52992;52.084;5.412;2022-07-29T02:54:37;21.30;46.50
66190;DHT22;52992;52.084;5.412;2022-07-29T02:57:11;21.20;46.60
66190;DHT22;52992;52.084;5.412;2022-07-29T02:59:42;21.20;46.70
66190;DHT22;52992;52.084;5.412;2022-07-29T03:02:10;21.30;47.00
66190;DHT22;52992;52.084;5.412;2022-07-29T03:04:40;21.20;46.90
66190;DHT22;52992;52.084;5.412;2022-07-29T03:07:09;21.20;46.90
66190;DHT22;52992;52.084;5.412;2022-07-29T03:09:37;21.20;47.20
66190;DHT22;52992;52.084;5.412;2022-07-29T03:12:05;21.20;47.10
66190;DHT22;52992;52.084;5.412;2022-07-29T03:14:33;21.20;47.20
66190;DHT22;52992;52.084;5.412;2022-07-29T03:17:00;21.20;46.80
66190;DHT22;52992;52.084;5.412;2022-07-29T03:19:27;21.20;46.70
66190;DHT22;52992;52.084;5.412;2022-07-29T03:21:58;21.10;46.90
66190;DHT22;52992;52.084;5.412;2022-07-29T03:24:33;21.10;46.80
66190;DHT22;52992;52.084;5.412;2022-07-29T03:27:00;21.10;46.80
66190;DHT22;52992;52.084;5.412;2022-07-29T03:29:28;21.10;46.90
66190;DHT22;52992;52.084;5.412;2022-07-29T03:32:01;21.10;46.90
66190;DHT22;52992;52.084;5.412;2022-07-29T03:34:33;21.10;46.70
66190;DHT22;52992;52.084;5.412;2022-07-29T03:37:00;21.00;46.90
66190;DHT22;52992;52.084;5.412;2022-07-29T03:39:30;21.00;46.90
66190;DHT22;52992;52.084;5.412;2022-07-29T03:41:59;21.00;46.90
66190;DHT22;52992;52.084;5.412;2022-07-29T03:44:27;21.00;47.00
66190;DHT22;52992;52.084;5.412;2022-07-29T03:46:57;21.00;47.00
66190;DHT22;52992;52.084;5.412;2022-07-29T03:49:27;20.90;46.90
66190;DHT22;52992;52.084;5.412;2022-07-29T03:51:54;20.90;47.20
66190;DHT22;52992;52.084;5.412;2022-07-29T03:54:22;20.90;47.20
66190;DHT22;52992;52.084;5.412;2022-07-29T03:56:50;20.90;47.10
66190;DHT22;52992;52.084;5.412;2022-07-29T03:59:20;20.90;47.30
66190;DHT22;52992;52.084;5.412;2022-07-29T04:01:48;20.90;47.30
66190;DHT22;52992;52.084;5.412;2022-07-29T04:04:19;20.90;47.10
66190;DHT22;52992;52.084;5.412;2022-07-29T04:06:46;20.80;47.20
66190;DHT22;52992;52.084;5.412;2022-07-29T04:09:14;20.80;46.90
66190;DHT22;52992;52.084;5.412;2022-07-29T04:11:42;20.80;46.80
66190;DHT22;52992;52.084;5.412;2022-07-29T04:14:32;20.80;47.00
66190;DHT22;52992;52.084;5.412;2022-07-29T04:17:01;20.70;46.90
66190;DHT22;52992;52.084;5.412;2022-07-29T04:19:32;20.70;47.30
66190;DHT22;52992;52.084;5.412;2022-07-29T04:22:02;20.70;47.20
66190;DHT22;52992;52.084;5.412;2022-07-29T04:24:31;20.80;47.30
66190;DHT22;52992;52.084;5.412;2022-07-29T04:26:58;20.70;47.20
66190;DHT22;52992;52.084;5.412;2022-07-29T04:29:25;20.80;47.10
66190;DHT22;52992;52.084;5.412;2022-07-29T04:31:54;20.80;47.10
66190;DHT22;52992;52.084;5.412;2022-07-29T04:34:21;20.80;47.20
66190;DHT22;52992;52.084;5.412;2022-07-29T04:36:53;20.80;47.10
66190;DHT22;52992;52.084;5.412;2022-07-29T04:39:20;20.70;47.10
66190;DHT22;52992;52.084;5.412;2022-07-29T04:41:49;20.80;47.40
66190;DHT22;52992;52.084;5.412;2022-07-29T04:44:22;20.80;47.20
66190;DHT22;52992;52.084;5.412;2022-07-29T04:46:57;20.80;47.30
66190;DHT22;52992;52.084;5.412;2022-07-29T04:49:27;20.80;47.20
66190;DHT22;52992;52.084;5.412;2022-07-29T04:51:57;20.80;47.00
66190;DHT22;52992;52.084;5.412;2022-07-29T04:54:42;20.80;47.10
66190;DHT22;52992;52.084;5.412;2022-07-29T04:57:09;20.80;47.10
66190;DHT22;52992;52.084;5.412;2022-07-29T04:59:36;20.80;47.40
66190;DHT22;52992;52.084;5.412;2022-07-29T05:02:03;20.80;47.00
66190;DHT22;52992;52.084;5.412;2022-07-29T05:04:36;20.80;47.30
66190;DHT22;52992;52.084;5.412;2022-07-29T05:07:03;20.80;47.80
66190;DHT22;52992;52.084;5.412;2022-07-29T05:09:32;20.80;47.80
66190;DHT22;52992;52.084;5.412;2022-07-29T05:12:04;20.80;47.70
66190;DHT22;52992;52.084;5.412;2022-07-29T05:14:31;20.90;47.50
66190;DHT22;52992;52.084;5.412;2022-07-29T05:16:59;20.90;47.00
66190;DHT22;52992;52.084;5.412;2022-07-29T05:19:30;20.80;47.10
66190;DHT22;52992;52.084;5.412;2022-07-29T05:21:57;20.80;47.30
66190;DHT22;52992;52.084;5.412;2022-07-29T05:24:24;20.80;47.20
66190;DHT22;52992;52.084;5.412;2022-07-29T05:26:51;20.80;47.70
66190;DHT22;52992;52.084;5.412;2022-07-29T05:29:19;20.90;47.90
66190;DHT22;52992;52.084;5.412;2022-07-29T05:32:09;21.00;48.10
66190;DHT22;52992;52.084;5.412;2022-07-29T05:34:38;21.00;48.00
66190;DHT22;52992;52.084;5.412;2022-07-29T05:37:19;21.10;48.10
66190;DHT22;52992;52.084;5.412;2022-07-29T05:39:46;21.10;47.70
66190;DHT22;52992;52.084;5.412;2022-07-29T05:42:22;21.10;47.20
66190;DHT22;52992;52.084;5.412;2022-07-29T05:44:49;21.10;47.40
66190;DHT22;52992;52.084;5.412;2022-07-29T05:47:15;21.10;47.30
66190;DHT22;52992;52.084;5.412;2022-07-29T05:49:43;21.10;47.40
66190;DHT22;52992;52.084;5.412;2022-07-29T05:52:10;21.20;47.70
66190;DHT22;52992;52.084;5.412;2022-07-29T05:54:36;21.20;47.70
66190;DHT22;52992;52.084;5.412;2022-07-29T05:57:04;21.20;47.30
66190;DHT22;52992;52.084;5.412;2022-07-29T05:59:35;21.20;47.70
66190;DHT22;52992;52.084;5.412;2022-07-29T06:02:03;21.30;48.40
66190;DHT22;52992;52.084;5.412;2022-07-29T06:04:32;21.30;47.90
66190;DHT22;52992;52.084;5.412;2022-07-29T06:07:00;21.30;48.10
66190;DHT22;52992;52.084;5.412;2022-07-29T06:09:28;21.40;47.80
66190;DHT22;52992;52.084;5.412;2022-07-29T06:11:55;21.30;47.60
66190;DHT22;52992;52.084;5.412;2022-07-29T06:14:22;21.30;48.20
66190;DHT22;52992;52.084;5.412;2022-07-29T06:16:49;21.30;48.10
66190;DHT22;52992;52.084;5.412;2022-07-29T06:19:16;21.30;47.70
66190;DHT22;52992;52.084;5.412;2022-07-29T06:21:43;21.30;48.10
66190;DHT22;52992;52.084;5.412;2022-07-29T06:24:11;21.30;48.50
66190;DHT22;52992;52.084;5.412;2022-07-29T06:26:40;21.30;49.30
66190;DHT22;52992;52.084;5.412;2022-07-29T06:29:08;21.40;49.50
66190;DHT22;52992;52.084;5.412;2022-07-29T06:31:35;21.50;49.50
66190;DHT22;52992;52.084;5.412;2022-07-29T06:34:01;21.60;49.20
66190;DHT22;52992;52.084;5.412;2022-07-29T06:36:29;21.70;48.90
66190;DHT22;52992;52.084;5.412;2022-07-29T06:38:56;21.90;48.80
66190;DHT22;52992;52.084;5.412;2022-07-29T06:41:23;22.10;48.90
66190;DHT22;52992;52.084;5.412;2022-07-29T06:43:50;22.20;47.90
66190;DHT22;52992;52.084;5.412;2022-07-29T06:46:22;22.30;48.40
66190;DHT22;52992;52.084;5.412;2022-07-29T06:48:50;22.40;48.30
66190;DHT22;52992;52.084;5.412;2022-07-29T06:51:19;22.50;48.40
66190;DHT22;52992;52.084;5.412;2022-07-29T06:53:52;22.50;48.90
66190;DHT22;52992;52.084;5.412;2022-07-29T06:56:33;22.50;47.90
66190;DHT22;52992;52.084;5.412;2022-07-29T06:59:08;22.50;48.10
66190;DHT22;52992;52.084;5.412;2022-07-29T07:01:36;22.40;46.90
66190;DHT22;52992;52.084;5.412;2022-07-29T07:04:04;22.40;46.90
66190;DHT22;52992;52.084;5.412;2022-07-29T07:06:31;22.30;46.90
66190;DHT22;52992;52.084;5.412;2022-07-29T07:08:58;22.30;47.00
66190;DHT22;52992;52.084;5.412;2022-07-29T07:11:24;22.40;47.60
66190;DHT22;52992;52.084;5.412;2022-07-29T07:13:51;22.40;48.00
66190;DHT22;52992;52.084;5.412;2022-07-29T07:16:18;22.50;47.90
66190;DHT22;52992;52.084;5.412;2022-07-29T07:18:45;22.60;47.40
66190;DHT22;52992;52.084;5.412;2022-07-29T07:21:12;22.60;47.70
66190;DHT22;52992;52.084;5.412;2022-07-29T07:23:45;22.70;48.40
66190;DHT22;52992;52.084;5.412;2022-07-29T07:26:12;22.80;48.60
66190;DHT22;52992;52.084;5.412;2022-07-29T07:28:39;22.80;47.10
66190;DHT22;52992;52.084;5.412;2022-07-29T07:31:06;22.90;46.40
66190;DHT22;52992;52.084;5.412;2022-07-29T07:33:33;22.90;46.60
66190;DHT22;52992;52.084;5.412;2022-07-29T07:36:00;23.10;47.60
66190;DHT22;52992;52.084;5.412;2022-07-29T07:38:27;23.20;46.70
66190;DHT22;52992;52.084;5.412;2022-07-29T07:40:54;23.40;45.80
66190;DHT22;52992;52.084;5.412;2022-07-29T07:43:21;23.50;45.70
66190;DHT22;52992;52.084;5.412;2022-07-29T07:45:49;23.70;46.60
66190;DHT22;52992;52.084;5.412;2022-07-29T07:48:16;23.80;44.90
66190;DHT22;52992;52.084;5.412;2022-07-29T07:50:43;24.00;45.60
66190;DHT22;52992;52.084;5.412;2022-07-29T07:53:10;24.00;45.30
66190;DHT22;52992;52.084;5.412;2022-07-29T07:55:41;24.20;45.20
66190;DHT22;52992;52.084;5.412;2022-07-29T07:58:29;24.30;45.30
66190;DHT22;52992;52.084;5.412;2022-07-29T08:00:56;24.60;45.20
66190;DHT22;52992;52.084;5.412;2022-07-29T08:03:23;24.80;43.20
66190;DHT22;52992;52.084;5.412;2022-07-29T08:05:50;24.80;42.30
66190;DHT22;52992;52.084;5.412;2022-07-29T08:08:20;24.80;42.60
66190;DHT22;52992;52.084;5.412;2022-07-29T08:10:47;24.70;43.30
66190;DHT22;52992;52.084;5.412;2022-07-29T08:13:25;24.60;44.40
66190;DHT22;52992;52.084;5.412;2022-07-29T08:15:54;24.60;43.80
66190;DHT22;52992;52.084;5.412;2022-07-29T08:18:29;24.60;45.00
66190;DHT22;52992;52.084;5.412;2022-07-29T08:20:56;24.60;44.10
66190;DHT22;52992;52.084;5.412;2022-07-29T08:23:23;24.50;44.20
66190;DHT22;52992;52.084;5.412;2022-07-29T08:25:51;24.50;44.00
66190;DHT22;52992;52.084;5.412;2022-07-29T08:28:20;24.60;43.90
66190;DHT22;52992;52.084;5.412;2022-07-29T08:30:51;24.70;44.20
66190;DHT22;52992;52.084;5.412;2022-07-29T08:33:18;24.70;43.40
66190;DHT22;52992;52.084;5.412;2022-07-29T08:35:45;24.90;43.40
66190;DHT22;52992;52.084;5.412;2022-07-29T08:38:12;24.90;42.60
66190;DHT22;52992;52.084;5.412;2022-07-29T08:40:39;24.80;42.70
66190;DHT22;52992;52.084;5.412;2022-07-29T08:43:07;24.70;42.90
66190;DHT22;52992;52.084;5.412;2022-07-29T08:45:48;24.70;43.00
66190;DHT22;52992;52.084;5.412;2022-07-29T08:48:21;24.60;43.20
66190;DHT22;52992;52.084;5.412;2022-07-29T08:50:52;24.70;44.20
66190;DHT22;52992;52.084;5.412;2022-07-29T08:53:21;24.60;44.80
66190;DHT22;52992;52.084;5.412;2022-07-29T08:55:49;24.60;43.10
66190;DHT22;52992;52.084;5.412;2022-07-29T08:58:17;24.60;43.60
66190;DHT22;52992;52.084;5.412;2022-07-29T09:00:52;24.80;44.00
66190;DHT22;52992;52.084;5.412;2022-07-29T09:03:23;24.80;43.10
66190;DHT22;52992;52.084;5.412;2022-07-29T09:05:51;25.00;44.30
66190;DHT22;52992;52.084;5.412;2022-07-29T09:08:18;25.10;44.30
66190;DHT22;52992;52.084;5.412;2022-07-29T09:10:46;25.30;44.00
66190;DHT22;52992;52.084;5.412;2022-07-29T09:13:13;25.50;41.80
66190;DHT22;52992;52.084;5.412;2022-07-29T09:15:40;25.60;40.50
66190;DHT22;52992;52.084;5.412;2022-07-29T09:18:07;25.70;42.60
66190;DHT22;52992;52.084;5.412;2022-07-29T09:20:54;25.90;41.50
66190;DHT22;52992;52.084;5.412;2022-07-29T09:23:40;25.90;39.70
66190;DHT22;52992;52.084;5.412;2022-07-29T09:26:08;26.10;40.70
66190;DHT22;52992;52.084;5.412;2022-07-29T09:28:41;26.10;39.30
66190;DHT22;52992;52.084;5.412;2022-07-29T09:31:08;26.20;40.10
66190;DHT22;52992;52.084;5.412;2022-07-29T09:33:35;26.40;38.10
66190;DHT22;52992;52.084;5.412;2022-07-29T09:36:09;26.50;39.50
66190;DHT22;52992;52.084;5.412;2022-07-29T09:38:36;26.70;39.50
66190;DHT22;52992;52.084;5.412;2022-07-29T09:41:04;26.80;39.10
66190;DHT22;52992;52.084;5.412;2022-07-29T09:43:33;26.90;38.30
66190;DHT22;52992;52.084;5.412;2022-07-29T09:46:13;27.00;38.20
66190;DHT22;52992;52.084;5.412;2022-07-29T09:48:40;27.00;37.00
66190;DHT22;52992;52.084;5.412;2022-07-29T09:51:17;27.10;37.20
66190;DHT22;52992;52.084;5.412;2022-07-29T09:53:48;27.00;37.70
66190;DHT22;52992;52.084;5.412;2022-07-29T09:56:20;27.20;39.50
66190;DHT22;52992;52.084;5.412;2022-07-29T09:59:05;27.20;39.10
66190;DHT22;52992;52.084;5.412;2022-07-29T10:01:33;27.20;38.90
66190;DHT22;52992;52.084;5.412;2022-07-29T10:04:00;27.30;37.40
66190;DHT22;52992;52.084;5.412;2022-07-29T10:06:27;27.30;35.50
66190;DHT22;52992;52.084;5.412;2022-07-29T10:08:54;27.60;36.10
66190;DHT22;52992;52.084;5.412;2022-07-29T10:11:21;27.60;37.10
66190;DHT22;52992;52.084;5.412;2022-07-29T10:13:48;27.70;38.30
66190;DHT22;52992;52.084;5.412;2022-07-29T10:16:16;27.70;35.20
66190;DHT22;52992;52.084;5.412;2022-07-29T10:18:43;27.80;35.10
66190;DHT22;52992;52.084;5.412;2022-07-29T10:21:10;28.00;36.20
66190;DHT22;52992;52.084;5.412;2022-07-29T10:23:59;28.20;35.80
66190;DHT22;52992;52.084;5.412;2022-07-29T10:26:28;28.50;35.90
66190;DHT22;52992;52.084;5.412;2022-07-29T10:28:55;28.70;34.20
66190;DHT22;52992;52.084;5.412;2022-07-29T10:31:36;28.80;33.80
66190;DHT22;52992;52.084;5.412;2022-07-29T10:34:32;28.90;33.90
66190;DHT22;52992;52.084;5.412;2022-07-29T10:40:39;29.10;34.30
66190;DHT22;52992;52.084;5.412;2022-07-29T10:43:36;29.20;34.30
66190;DHT22;52992;52.084;5.412;2022-07-29T10:46:08;29.50;34.90
66190;DHT22;52992;52.084;5.412;2022-07-29T10:52:01;30.00;33.10
66190;DHT22;52992;52.084;5.412;2022-07-29T10:54:49;30.20;32.70
66190;DHT22;52992;52.084;5.412;2022-07-29T11:05:26;31.50;32.80
66190;DHT22;52992;52.084;5.412;2022-07-29T11:10:47;32.00;31.10
66190;DHT22;52992;52.084;5.412;2022-07-29T11:16:13;31.90;30.30
66190;DHT22;52992;52.084;5.412;2022-07-29T11:21:46;31.40;32.20
66190;DHT22;52992;52.084;5.412;2022-07-29T11:24:30;31.70;29.60
66190;DHT22;52992;52.084;5.412;2022-07-29T11:27:19;32.00;30.50
66190;DHT22;52992;52.084;5.412;2022-07-29T11:32:24;31.00;34.00
66190;DHT22;52992;52.084;5.412;2022-07-29T11:35:17;30.80;34.60
66190;DHT22;52992;52.084;5.412;2022-07-29T11:38:39;31.30;33.70
66190;DHT22;52992;52.084;5.412;2022-07-29T11:41:23;32.40;34.50
66190;DHT22;52992;52.084;5.412;2022-07-29T11:43:53;32.90;33.90
66190;DHT22;52992;52.084;5.412;2022-07-29T11:46:47;33.40;32.50
66190;DHT22;52992;52.084;5.412;2022-07-29T11:49:20;33.90;29.10
66190;DHT22;52992;52.084;5.412;2022-07-29T11:51:58;34.30;31.30
66190;DHT22;52992;52.084;5.412;2022-07-29T11:54:33;34.80;31.10
66190;DHT22;52992;52.084;5.412;2022-07-29T11:57:21;35.30;29.80
66190;DHT22;52992;52.084;5.412;2022-07-29T12:00:05;35.80;30.00
66190;DHT22;52992;52.084;5.412;2022-07-29T12:02:39;36.20;30.90
66190;DHT22;52992;52.084;5.412;2022-07-29T12:05:09;36.50;28.70
66190;DHT22;52992;52.084;5.412;2022-07-29T12:07:40;36.60;28.00
66190;DHT22;52992;52.084;5.412;2022-07-29T12:10:12;36.70;27.70
66190;DHT22;52992;52.084;5.412;2022-07-29T12:12:55;36.80;28.80
66190;DHT22;52992;52.084;5.412;2022-07-29T12:15:22;37.10;28.50
66190;DHT22;52992;52.084;5.412;2022-07-29T12:18:20;37.30;28.20
66190;DHT22;52992;52.084;5.412;2022-07-29T12:20:57;37.60;28.60
66190;DHT22;52992;52.084;5.412;2022-07-29T12:23:28;37.80;27.90
66190;DHT22;52992;52.084;5.412;2022-07-29T12:26:04;38.00;27.70
66190;DHT22;52992;52.084;5.412;2022-07-29T12:28:38;38.10;25.00
66190;DHT22;52992;52.084;5.412;2022-07-29T12:31:05;38.00;26.20
66190;DHT22;52992;52.084;5.412;2022-07-29T12:33:34;38.00;27.80
66190;DHT22;52992;52.084;5.412;2022-07-29T12:36:02;38.10;28.20
66190;DHT22;52992;52.084;5.412;2022-07-29T12:38:35;38.30;28.20
66190;DHT22;52992;52.084;5.412;2022-07-29T12:41:02;38.50;28.00
66190;DHT22;52992;52.084;5.412;2022-07-29T12:43:30;38.40;25.50
66190;DHT22;52992;52.084;5.412;2022-07-29T12:45:57;38.40;26.80
66190;DHT22;52992;52.084;5.412;2022-07-29T12:48:43;38.50;26.80
66190;DHT22;52992;52.084;5.412;2022-07-29T12:51:11;38.50;27.10
66190;DHT22;52992;52.084;5.412;2022-07-29T12:53:40;38.60;27.80
66190;DHT22;52992;52.084;5.412;2022-07-29T12:56:15;38.70;27.90
66190;DHT22;52992;52.084;5.412;2022-07-29T13:01:40;38.70;25.70
66190;DHT22;52992;52.084;5.412;2022-07-29T13:04:07;38.60;27.10
66190;DHT22;52992;52.084;5.412;2022-07-29T13:06:44;38.60;26.30
66190;DHT22;52992;52.084;5.412;2022-07-29T13:09:18;38.70;27.20
66190;DHT22;52992;52.084;5.412;2022-07-29T13:11:51;38.80;25.50
66190;DHT22;52992;52.084;5.412;2022-07-29T13:14:39;38.50;24.40
66190;DHT22;52992;52.084;5.412;2022-07-29T13:17:24;38.30;26.50
66190;DHT22;52992;52.084;5.412;2022-07-29T13:20:06;38.10;26.70
66190;DHT22;52992;52.084;5.412;2022-07-29T13:22:35;38.00;28.10
66190;DHT22;52992;52.084;5.412;2022-07-29T13:25:02;38.00;28.00
66190;DHT22;52992;52.084;5.412;2022-07-29T13:27:30;38.10;28.10
66190;DHT22;52992;52.084;5.412;2022-07-29T13:30:00;38.10;27.60
66190;DHT22;52992;52.084;5.412;2022-07-29T13:32:29;38.00;27.60
66190;DHT22;52992;52.084;5.412;2022-07-29T13:34:57;38.00;27.40
66190;DHT22;52992;52.084;5.412;2022-07-29T13:37:24;37.90;27.10
66190;DHT22;52992;52.084;5.412;2022-07-29T13:39:52;37.80;26.50
66190;DHT22;52992;52.084;5.412;2022-07-29T13:42:20;37.70;25.70
66190;DHT22;52992;52.084;5.412;2022-07-29T13:44:47;37.40;26.00
66190;DHT22;52992;52.084;5.412;2022-07-29T13:47:18;37.20;26.90
66190;DHT22;52992;52.084;5.412;2022-07-29T13:49:45;37.20;28.00
66190;DHT22;52992;52.084;5.412;2022-07-29T13:52:12;37.20;27.40
66190;DHT22;52992;52.084;5.412;2022-07-29T13:54:38;37.20;26.50
66190;DHT22;52992;52.084;5.412;2022-07-29T13:57:08;36.90;27.10
66190;DHT22;52992;52.084;5.412;2022-07-29T13:59:38;36.80;28.00
66190;DHT22;52992;52.084;5.412;2022-07-29T14:02:06;36.80;27.10
66190;DHT22;52992;52.084;5.412;2022-07-29T14:04:33;36.60;26.20
66190;DHT22;52992;52.084;5.412;2022-07-29T14:07:00;36.50;26.30
66190;DHT22;52992;52.084;5.412;2022-07-29T14:09:29;36.30;28.20
66190;DHT22;52992;52.084;5.412;2022-07-29T14:12:07;36.30;28.40
66190;DHT22;52992;52.084;5.412;2022-07-29T14:14:34;36.30;27.00
66190;DHT22;52992;52.084;5.412;2022-07-29T14:17:03;36.30;27.60
66190;DHT22;52992;52.084;5.412;2022-07-29T14:19:32;36.30;28.20
66190;DHT22;52992;52.084;5.412;2022-07-29T14:22:03;36.30;28.40
66190;DHT22;52992;52.084;5.412;2022-07-29T14:24:30;36.40;28.40
66190;DHT22;52992;52.084;5.412;2022-07-29T14:26:58;36.50;26.60
66190;DHT22;52992;52.084;5.412;2022-07-29T14:29:25;36.30;26.20
66190;DHT22;52992;52.084;5.412;2022-07-29T14:32:08;35.70;27.20
66190;DHT22;52992;52.084;5.412;2022-07-29T14:34:37;34.80;28.00
66190;DHT22;52992;52.084;5.412;2022-07-29T14:37:04;34.00;29.20
66190;DHT22;52992;52.084;5.412;2022-07-29T14:39:33;33.50;30.00
66190;DHT22;52992;52.084;5.412;2022-07-29T14:42:07;32.80;29.30
66190;DHT22;52992;52.084;5.412;2022-07-29T14:44:34;32.20;30.40
66190;DHT22;52992;52.084;5.412;2022-07-29T14:47:01;31.80;31.10
66190;DHT22;52992;52.084;5.412;2022-07-29T14:49:33;31.70;31.30
66190;DHT22;52992;52.084;5.412;2022-07-29T14:52:00;31.80;31.10
66190;DHT22;52992;52.084;5.412;2022-07-29T14:54:27;31.70;30.60
66190;DHT22;52992;52.084;5.412;2022-07-29T14:56:54;31.60;31.30
66190;DHT22;52992;52.084;5.412;2022-07-29T14:59:24;31.80;31.50
66190;DHT22;52992;52.084;5.412;2022-07-29T15:01:51;32.00;32.60
66190;DHT22;52992;52.084;5.412;2022-07-29T15:04:17;32.00;32.00
66190;DHT22;52992;52.084;5.412;2022-07-29T15:06:44;31.80;31.20
66190;DHT22;52992;52.084;5.412;2022-07-29T15:09:11;31.40;32.20
66190;DHT22;52992;52.084;5.412;2022-07-29T15:11:38;31.10;32.20
66190;DHT22;52992;52.084;5.412;2022-07-29T15:14:05;30.80;32.40
66190;DHT22;52992;52.084;5.412;2022-07-29T15:16:35;30.50;32.80
66190;DHT22;52992;52.084;5.412;2022-07-29T15:19:02;30.30;33.00
66190;DHT22;52992;52.084;5.412;2022-07-29T15:21:29;30.10;33.30
66190;DHT22;52992;52.084;5.412;2022-07-29T15:23:56;30.00;33.80
66190;DHT22;52992;52.084;5.412;2022-07-29T15:26:23;29.90;33.50
66190;DHT22;52992;52.084;5.412;2022-07-29T15:28:50;30.10;34.00
66190;DHT22;52992;52.084;5.412;2022-07-29T15:31:16;30.30;33.30
66190;DHT22;52992;52.084;5.412;2022-07-29T15:33:45;30.60;33.20
66190;DHT22;52992;52.084;5.412;2022-07-29T15:36:12;30.80;33.70
66190;DHT22;52992;52.084;5.412;2022-07-29T15:38:59;30.80;31.40
66190;DHT22;52992;52.084;5.412;2022-07-29T15:41:25;30.80;31.50
66190;DHT22;52992;52.084;5.412;2022-07-29T15:43:52;30.80;31.50
66190;DHT22;52992;52.084;5.412;2022-07-29T15:46:20;30.80;31.60
66190;DHT22;52992;52.084;5.412;2022-07-29T15:49:06;30.80;31.10
66190;DHT22;52992;52.084;5.412;2022-07-29T15:51:33;30.80;31.10
66190;DHT22;52992;52.084;5.412;2022-07-29T15:54:01;30.70;31.70
66190;DHT22;52992;52.084;5.412;2022-07-29T15:56:29;30.70;31.40
66190;DHT22;52992;52.084;5.412;2022-07-29T15:58:56;30.70;31.80
66190;DHT22;52992;52.084;5.412;2022-07-29T16:01:23;30.80;32.70
66190;DHT22;52992;52.084;5.412;2022-07-29T16:03:50;30.90;31.70
66190;DHT22;52992;52.084;5.412;2022-07-29T16:06:17;30.80;31.20
66190;DHT22;52992;52.084;5.412;2022-07-29T16:08:44;30.80;31.50
66190;DHT22;52992;52.084;5.412;2022-07-29T16:11:11;30.90;32.30
66190;DHT22;52992;52.084;5.412;2022-07-29T16:13:38;30.90;31.50
66190;DHT22;52992;52.084;5.412;2022-07-29T16:16:05;30.80;31.30
66190;DHT22;52992;52.084;5.412;2022-07-29T16:18:32;30.80;30.90
66190;DHT22;52992;52.084;5.412;2022-07-29T16:21:00;30.80;30.70
66190;DHT22;52992;52.084;5.412;2022-07-29T16:23:27;30.80;30.80
66190;DHT22;52992;52.084;5.412;2022-07-29T16:25:53;30.80;30.60
66190;DHT22;52992;52.084;5.412;2022-07-29T16:28:27;30.70;30.50
66190;DHT22;52992;52.084;5.412;2022-07-29T16:30:54;30.60;30.00
66190;DHT22;52992;52.084;5.412;2022-07-29T16:33:21;30.70;30.10